Etusivu
METAR-TAF:

METAR-TAF

Lentoasemat :

Djibouti, Djibouti

Amboulin kansainvälinen lentoasema

Leveyspiiri: 11-33N, Pituuspiiri: 043-10E, korkeus merenpinnasta: 49 m

Tämänhetkinen sää

Tämä raportti tehtiin 12 tuntia ja 54 minuuttia sitten, kello 09.00 UTC
Tuuli 14 kn idästä/kaakosta
Lämpötila 29°C
Kosteus 48%
Ilmanpaine 1019 hPa
Näkyvyys 10 km tai enemmän
Muutamia pilviä 2300 ft:n korkeudessa

METAR: HDAM 120900Z 11014KT 9999 FEW023 29/17 Q1019

Aika: 00:54 (21:54 UTC)

Sääennuste

Tämä raportti tehtiin 10 tuntia ja 54 minuuttia sitten, kello 11.00 UTC
Ennuste voimassa 12. päivästä klo 12 UTC - 13. päivään klo 12 UTC
Tuuli 10 kn idästä
Näkyvyys 10 km tai enemmän
Muutamia pilviä 2300 ft:n korkeudessa
Tulossa
12. päivästä klo 15 UTC - 13. päivään klo 06 UTC
Tuuli 3 kn eri suunnista
Hajanaisia pilviä 2000 ft:n korkeudessa
Hajanaisia pilviä 3000 ft:n korkeudessa

TAF: HDAM 121100Z 1212/1312 08010KT 9999 FEW023 BECMG 1215/1306 VRB03KT SCT020 SCT030

Säähavainnot ja -ennusteet yli 4000 lentoasemalta (METAR- ja TAF-raportit).

Käytössä olevat sääasemat on merkitty karttaan keltaisilla ja punaisilla pisteillä.

Aseta hiiri pisteen päälle nähdäksesi sääaseman nimen.

Klikkaa sitten nähdäksesi säähavainnot ja -ennusteet.

Kartan vaihtaminen: klikkaa mustalla rastilla varustettuja vihreitä pisteitä, niin voit zoomata sisään; viivalla varustettua vihreää pistettä, niin voit zoomata ulos tai vihreitä nuolia, niin pääset viereisille kartoille.


METAR-TAF: